Time;durP1;ratioP1;P1;durP2;ratioP2;P2;SDS_P1;SDS_P2;PMS_P1;PMS_P2;Temp;Humidity;BMP_temperature;BMP_pressure;BME280_temperature;BME280_humidity;BME280_pressure;Samples;Min_cycle;Max_cycle;Signal;HPM_P1;HPM_P2
2021/05/17 06:18:36;;;;;;;3.07;1.17;;;11.50;99.90;;;;;;5006358;23;20232;-73
2021/05/17 06:21:03;;;;;;;1.90;1.10;;;11.80;99.90;;;;;;4975584;28;20788;-73
2021/05/17 06:23:30;;;;;;;2.30;0.87;;;12.00;99.90;;;;;;4975309;28;20235;-73
2021/05/17 06:25:57;;;;;;;1.70;0.70;;;12.40;99.90;;;;;;4974756;28;20584;-73
2021/05/17 06:28:24;;;;;;;4.07;1.13;;;12.70;99.90;;;;;;4975093;28;20289;-73
2021/05/17 06:30:53;;;;;;;2.53;1.20;;;13.20;99.90;;;;;;4974958;28;20689;-73
2021/05/17 06:33:21;;;;;;;1.97;1.10;;;13.50;99.90;;;;;;4975312;28;20282;-72
2021/05/17 06:35:52;;;;;;;2.87;0.83;;;13.50;99.90;;;;;;4974761;28;20737;-73
2021/05/17 06:38:19;;;;;;;2.23;1.03;;;13.50;99.90;;;;;;4974536;28;20211;-75
2021/05/17 06:40:45;;;;;;;2.70;0.70;;;13.40;99.90;;;;;;4974539;28;20211;-74
2021/05/17 06:43:11;;;;;;;3.80;1.10;;;13.40;99.90;;;;;;4974564;28;20618;-73
2021/05/17 06:45:38;;;;;;;1.77;0.80;;;13.30;99.90;;;;;;4974179;28;20231;-74
2021/05/17 06:48:05;;;;;;;2.40;0.87;;;13.40;99.90;;;;;;4972416;28;20211;-74
2021/05/17 06:50:32;;;;;;;2.17;0.80;;;13.20;99.90;;;;;;4973301;28;20211;-73
2021/05/17 06:52:59;;;;;;;0.93;0.70;;;13.10;99.90;;;;;;4973979;28;20219;-74
2021/05/17 06:55:31;;;;;;;6.97;1.00;;;13.20;99.90;;;;;;4974271;28;20267;-73
2021/05/17 07:00:39;;;;;;;2.63;1.00;;;13.30;99.90;;;;;;4971996;28;20199;-74
2021/05/17 07:03:07;;;;;;;3.50;0.73;;;13.30;99.90;;;;;;4974489;28;20305;-74
2021/05/17 07:05:35;;;;;;;3.60;0.83;;;13.30;99.90;;;;;;4974888;28;20223;-73
2021/05/17 07:13:32;;;;;;;1.30;0.77;;;13.20;99.90;;;;;;4974573;28;20207;-74
2021/05/17 07:15:59;;;;;;;1.10;0.70;;;13.20;99.90;;;;;;4974912;28;20210;-74
2021/05/17 07:18:25;;;;;;;2.47;0.70;;;13.00;99.90;;;;;;4968797;28;20581;-73
2021/05/17 07:23:40;;;;;;;2.30;0.80;;;12.90;99.90;;;;;;4974037;28;20237;-74
2021/05/17 07:26:10;;;;;;;1.40;0.80;;;12.70;99.90;;;;;;4974465;28;20218;-74
2021/05/17 07:28:37;;;;;;;1.70;0.80;;;12.50;99.90;;;;;;4974702;28;20204;-75
2021/05/17 07:31:05;;;;;;;2.83;0.70;;;12.50;99.90;;;;;;4974003;28;20662;-74
2021/05/17 07:33:31;;;;;;;1.33;0.60;;;12.50;99.90;;;;;;4971428;28;20207;-76
2021/05/17 07:35:58;;;;;;;1.60;0.70;;;12.40;99.90;;;;;;4963602;28;20207;-80
2021/05/17 07:38:28;;;;;;;4.90;1.10;;;12.30;99.90;;;;;;4973056;28;20211;-79
2021/05/17 07:40:56;;;;;;;2.13;0.80;;;12.10;99.90;;;;;;4972685;28;20637;-75
2021/05/17 07:43:23;;;;;;;4.20;0.67;;;11.90;99.90;;;;;;4973069;28;20235;-76
2021/05/17 07:45:49;;;;;;;1.53;0.60;;;11.90;99.90;;;;;;4973341;28;20212;-72
2021/05/17 07:48:16;;;;;;;1.70;0.80;;;11.90;99.90;;;;;;4971121;28;20674;-73
2021/05/17 07:50:42;;;;;;;0.40;0.40;;;11.90;99.90;;;;;;4972572;28;20218;-74
2021/05/17 07:53:09;;;;;;;1.23;0.70;;;11.90;99.90;;;;;;4959092;28;20654;-78
2021/05/17 07:55:35;;;;;;;1.90;0.80;;;11.90;99.90;;;;;;4971563;28;20753;-79
2021/05/17 07:58:03;;;;;;;1.80;0.80;;;11.80;99.90;;;;;;4972318;28;20217;-72
2021/05/17 08:00:29;;;;;;;1.23;0.70;;;11.90;99.90;;;;;;4972533;28;20203;-72
2021/05/17 08:02:55;;;;;;;2.10;0.73;;;12.00;99.90;;;;;;4972466;28;20305;-73
2021/05/17 08:05:22;;;;;;;5.87;0.90;;;11.90;99.90;;;;;;4971988;28;20782;-75
2021/05/17 08:07:48;;;;;;;1.40;0.70;;;11.90;99.90;;;;;;4976184;28;20681;-72
2021/05/17 08:10:15;;;;;;;3.27;0.63;;;12.00;99.90;;;;;;4976908;28;20211;-77
2021/05/17 08:12:41;;;;;;;1.37;0.60;;;12.10;99.90;;;;;;4976278;28;20203;-72
2021/05/17 08:15:09;;;;;;;3.33;0.60;;;12.10;99.90;;;;;;4976049;28;20582;-77
2021/05/17 08:17:36;;;;;;;1.07;0.90;;;12.10;99.90;;;;;;4975877;28;20262;-70
2021/05/17 08:20:04;;;;;;;1.80;0.97;;;12.20;99.90;;;;;;4975778;28;20215;-76
2021/05/17 08:22:30;;;;;;;1.60;0.80;;;12.30;99.90;;;;;;4977015;28;20506;-74
2021/05/17 08:24:57;;;;;;;2.57;0.97;;;12.50;99.90;;;;;;4975925;28;20234;-73
2021/05/17 08:27:24;;;;;;;1.30;0.77;;;12.40;99.90;;;;;;4975644;28;20203;-69
2021/05/17 08:29:50;;;;;;;3.03;0.80;;;12.40;99.90;;;;;;4976555;28;20407;-73
2021/05/17 08:32:17;;;;;;;3.30;0.90;;;12.30;99.90;;;;;;4976009;28;20219;-77
2021/05/17 08:34:44;;;;;;;0.90;0.67;;;12.20;99.90;;;;;;4972911;28;20234;-72
2021/05/17 08:37:10;;;;;;;2.23;0.70;;;12.40;99.90;;;;;;4958654;28;20667;-75
2021/05/17 08:39:36;;;;;;;2.43;0.80;;;12.40;99.90;;;;;;4976166;28;20211;-74
2021/05/17 08:42:03;;;;;;;3.03;0.70;;;12.30;99.90;;;;;;4975195;28;20240;-76
2021/05/17 08:44:30;;;;;;;3.47;0.70;;;12.20;99.90;;;;;;4976331;28;20578;-71
2021/05/17 08:46:56;;;;;;;2.53;0.70;;;12.10;99.90;;;;;;4977498;28;20349;-74
2021/05/17 08:49:23;;;;;;;5.70;0.80;;;12.20;99.90;;;;;;4976566;28;20215;-69
2021/05/17 08:51:50;;;;;;;3.90;0.77;;;12.20;99.90;;;;;;4975941;28;20215;-73
2021/05/17 08:54:16;;;;;;;1.43;0.70;;;12.30;99.90;;;;;;4976422;28;20722;-75
2021/05/17 08:56:44;;;;;;;2.90;0.90;;;12.20;99.90;;;;;;4977132;28;20678;-75
2021/05/17 08:59:14;;;;;;;4.37;0.90;;;12.20;99.90;;;;;;4979002;28;20246;-83
2021/05/17 09:01:41;;;;;;;3.57;1.00;;;12.20;99.90;;;;;;4978636;28;20306;-72
2021/05/17 09:04:09;;;;;;;3.10;0.73;;;12.30;99.90;;;;;;4975532;28;20239;-71
2021/05/17 09:06:39;;;;;;;2.70;1.10;;;12.40;99.90;;;;;;4975892;28;20226;-81
2021/05/17 09:09:06;;;;;;;1.10;0.80;;;12.50;99.90;;;;;;4975633;28;20203;-72
2021/05/17 09:11:34;;;;;;;3.40;0.80;;;12.50;99.90;;;;;;4974973;28;20606;-72
2021/05/17 09:14:11;;;;;;;2.97;0.90;;;12.60;99.90;;;;;;4975309;28;20239;-73
2021/05/17 09:16:54;;;;;;;2.60;1.10;;;12.70;99.90;;;;;;4975210;28;20335;-84
2021/05/17 09:19:24;;;;;;;3.23;1.03;;;12.90;99.90;;;;;;4973276;28;20213;-75
2021/05/17 09:22:09;;;;;;;2.47;1.10;;;13.30;99.90;;;;;;4975310;28;20211;-82
2021/05/17 09:24:44;;;;;;;1.60;0.90;;;13.50;99.90;;;;;;4974471;28;20385;-85
2021/05/17 09:27:11;;;;;;;2.70;1.33;;;13.60;99.90;;;;;;4975819;28;20206;-88
2021/05/17 09:29:39;;;;;;;5.40;1.40;;;13.70;99.90;;;;;;4976398;28;20203;-77
2021/05/17 09:32:25;;;;;;;2.13;1.23;;;13.70;99.90;;;;;;4975385;28;20207;-86
2021/05/17 09:35:00;;;;;;;2.43;1.30;;;13.70;99.90;;;;;;4975864;28;20582;-78
2021/05/17 09:37:41;;;;;;;3.50;1.40;;;13.60;99.90;;;;;;4959849;28;20230;-82
2021/05/17 09:40:17;;;;;;;2.77;1.30;;;13.60;99.90;;;;;;4975694;28;20211;-81
2021/05/17 09:42:44;;;;;;;2.93;1.10;;;13.50;99.90;;;;;;4975214;28;20719;-78
2021/05/17 09:45:12;;;;;;;2.63;1.33;;;13.50;99.90;;;;;;4974525;28;20231;-86
2021/05/17 09:47:42;;;;;;;1.97;1.40;;;13.50;99.90;;;;;;4974597;28;20563;-75
2021/05/17 09:50:09;;;;;;;4.33;1.50;;;13.40;99.90;;;;;;4974632;28;20229;-78
2021/05/17 09:52:37;;;;;;;2.00;1.30;;;13.50;99.90;;;;;;4975399;28;20243;-78
2021/05/17 09:55:05;;;;;;;4.33;1.60;;;13.70;99.90;;;;;;4974257;28;20223;-77
2021/05/17 09:57:34;;;;;;;3.43;1.63;;;13.90;99.90;;;;;;4974814;28;20208;-74
2021/05/17 10:00:08;;;;;;;3.13;1.73;;;14.10;99.90;;;;;;4974849;28;20207;-79
2021/05/17 10:02:40;;;;;;;3.20;1.60;;;14.40;99.90;;;;;;4974350;28;20230;-76
2021/05/17 10:05:21;;;;;;;4.17;1.67;;;14.60;99.90;;;;;;4974570;28;20226;-75
2021/05/17 10:07:51;;;;;;;3.57;1.43;;;14.70;99.90;;;;;;4974152;28;20203;-79
2021/05/17 10:10:19;;;;;;;4.53;1.60;;;14.80;99.90;;;;;;4974183;28;20218;-79
2021/05/17 10:12:46;;;;;;;2.17;1.40;;;14.80;99.90;;;;;;4974584;28;20258;-76
2021/05/17 10:15:14;;;;;;;3.27;1.63;;;14.70;99.90;;;;;;4974730;28;20314;-83
2021/05/17 10:17:42;;;;;;;2.60;1.70;;;14.80;99.90;;;;;;4974224;28;20224;-77
2021/05/17 10:20:13;;;;;;;4.73;1.70;;;15.10;99.90;;;;;;4974713;28;20211;-72
2021/05/17 10:22:40;;;;;;;5.60;1.50;;;15.60;99.90;;;;;;4974102;28;20660;-72
2021/05/17 10:25:10;;;;;;;3.90;1.60;;;16.00;99.90;;;;;;4973430;28;20242;-71
2021/05/17 10:27:40;;;;;;;4.63;1.87;;;16.10;99.90;;;;;;4974133;28;20203;-75
2021/05/17 10:30:09;;;;;;;3.17;1.70;;;15.90;99.90;;;;;;4973080;28;20207;-77
2021/05/17 10:32:44;;;;;;;2.37;1.40;;;15.90;99.90;;;;;;4973714;28;20212;-72
2021/05/17 10:35:14;;;;;;;7.40;2.07;;;16.10;99.90;;;;;;4974044;28;20581;-75
2021/05/17 10:37:44;;;;;;;5.33;1.40;;;16.20;99.90;;;;;;4973460;28;20662;-72
2021/05/17 10:40:30;;;;;;;5.03;1.80;;;16.20;99.90;;;;;;4973183;28;20670;-75
2021/05/17 10:43:05;;;;;;;2.33;1.40;;;16.40;99.90;;;;;;4973063;28;20235;-75
2021/05/17 10:48:27;;;;;;;2.57;1.33;;;16.50;99.90;;;;;;4937672;28;20225;-73
2021/05/17 10:51:10;;;;;;;2.87;1.57;;;16.40;99.90;;;;;;4975018;28;20566;-76
2021/05/17 10:53:44;;;;;;;3.00;1.40;;;16.30;99.90;;;;;;4975173;28;20701;-75
2021/05/17 10:56:14;;;;;;;3.93;1.50;;;16.20;99.90;;;;;;4975353;28;20206;-74
2021/05/17 11:01:55;;;;;;;4.30;1.57;;;15.00;99.90;;;;;;4965323;28;20210;-73
2021/05/17 11:04:30;;;;;;;2.87;1.67;;;14.40;99.90;;;;;;4981773;28;20235;-74
2021/05/17 11:07:24;;;;;;;7.03;1.87;;;13.90;99.90;;;;;;4990697;28;20213;-74
2021/05/17 11:10:00;;;;;;;2.27;1.50;;;13.70;99.90;;;;;;4988188;28;20203;-75
2021/05/17 11:13:03;;;;;;;4.40;1.60;;;13.80;99.90;;;;;;4988864;28;20211;-76
2021/05/17 11:15:42;;;;;;;3.43;1.60;;;14.10;99.90;;;;;;4986342;28;20709;-74
2021/05/17 11:18:40;;;;;;;3.83;1.67;;;13.90;99.90;;;;;;4977525;28;20210;-72
2021/05/17 11:21:14;;;;;;;4.47;1.83;;;13.80;99.90;;;;;;4977599;28;20293;-73
2021/05/17 11:23:52;;;;;;;4.37;2.23;;;13.50;99.90;;;;;;4975820;28;20361;-74
2021/05/17 11:26:21;;;;;;;3.80;2.27;;;13.40;99.90;;;;;;4975878;28;20562;-73
2021/05/17 11:29:08;;;;;;;4.07;2.10;;;13.20;99.90;;;;;;4975124;28;20303;-74
2021/05/17 11:31:46;;;;;;;5.43;2.80;;;13.50;99.90;;;;;;4975543;28;20207;-73
2021/05/17 11:34:21;;;;;;;5.63;2.90;;;13.70;99.90;;;;;;4975191;28;20246;-73
2021/05/17 11:36:51;;;;;;;7.63;3.40;;;14.00;99.90;;;;;;4974547;28;20617;-73
2021/05/17 11:39:19;;;;;;;8.30;3.40;;;14.30;99.90;;;;;;4974977;28;20688;-73
2021/05/17 11:41:49;;;;;;;8.93;3.30;;;14.70;99.90;;;;;;4974474;28;20551;-73
2021/05/17 11:44:21;;;;;;;7.27;3.10;;;15.10;99.90;;;;;;4974470;28;20239;-74
2021/05/17 11:46:50;;;;;;;7.63;3.17;;;15.60;99.90;;;;;;4974341;28;20211;-74
2021/05/17 11:49:19;;;;;;;6.77;3.30;;;15.60;99.90;;;;;;4974333;28;20207;-74
2021/05/17 11:51:50;;;;;;;7.60;3.00;;;15.80;99.90;;;;;;4974323;28;20218;-74
2021/05/17 11:54:17;;;;;;;8.13;3.07;;;15.90;99.90;;;;;;4974161;28;20231;-74
2021/05/17 11:56:45;;;;;;;3.60;2.20;;;15.90;99.90;;;;;;4974526;28;20218;-75
2021/05/17 11:59:14;;;;;;;5.63;2.30;;;15.90;99.90;;;;;;4974236;28;20716;-74
2021/05/17 12:01:43;;;;;;;5.07;2.53;;;16.10;99.90;;;;;;4974449;28;20219;-75
2021/05/17 12:04:21;;;;;;;3.57;1.90;;;16.00;99.90;;;;;;4974071;28;20254;-74
2021/05/17 12:06:50;;;;;;;3.83;2.10;;;15.80;99.90;;;;;;4973377;28;20218;-72
2021/05/17 12:09:26;;;;;;;4.00;2.00;;;15.60;99.90;;;;;;4970747;28;20210;-69
2021/05/17 12:11:53;;;;;;;2.87;1.60;;;15.40;99.90;;;;;;4972508;28;20203;-72
2021/05/17 12:14:19;;;;;;;5.63;1.70;;;15.30;99.90;;;;;;4982646;23;20231;-69
2021/05/17 12:16:45;;;;;;;3.87;1.40;;;15.30;99.90;;;;;;4953280;29;20686;-68
2021/05/17 12:19:15;;;;;;;2.70;1.47;;;15.30;99.90;;;;;;4953022;29;20244;-78
2021/05/17 12:21:42;;;;;;;3.30;1.30;;;15.30;99.90;;;;;;4947705;29;20208;-74
2021/05/17 12:24:24;;;;;;;4.33;1.40;;;15.10;99.90;;;;;;4953259;28;20324;-73
2021/05/17 12:26:52;;;;;;;1.90;1.03;;;14.80;99.90;;;;;;4944950;29;20209;-75
2021/05/17 12:29:19;;;;;;;4.80;1.63;;;14.60;99.90;;;;;;4933850;29;20213;-73
2021/05/17 12:31:46;;;;;;;2.63;1.10;;;14.60;99.90;;;;;;4933860;29;20633;-74
2021/05/17 12:34:12;;;;;;;2.03;1.30;;;14.60;99.90;;;;;;4934042;29;20656;-74
2021/05/17 12:36:41;;;;;;;4.70;1.27;;;14.70;99.90;;;;;;4933388;29;20244;-72
2021/05/17 12:39:14;;;;;;;2.53;1.47;;;14.90;99.90;;;;;;4933418;29;20299;-74
2021/05/17 12:41:41;;;;;;;1.77;1.00;;;15.00;99.90;;;;;;4933672;29;20212;-75
2021/05/17 12:44:33;;;;;;;3.40;1.27;;;15.00;99.90;;;;;;4932970;29;20241;-75
2021/05/17 12:47:08;;;;;;;2.50;1.10;;;14.90;99.90;;;;;;4933725;29;20284;-73
2021/05/17 12:49:49;;;;;;;2.00;1.33;;;14.90;99.90;;;;;;4934260;29;20205;-73
2021/05/17 12:52:27;;;;;;;3.53;1.37;;;14.80;99.90;;;;;;4916448;29;20210;-72
2021/05/17 12:55:18;;;;;;;2.27;1.23;;;14.80;99.90;;;;;;4919048;29;20233;-73
2021/05/17 12:57:48;;;;;;;6.03;1.97;;;15.20;99.90;;;;;;4919672;29;20205;-75
2021/05/17 13:00:18;;;;;;;4.87;1.80;;;15.60;99.90;;;;;;4923534;29;20212;-82
2021/05/17 13:03:01;;;;;;;4.10;1.97;;;16.00;99.90;;;;;;4938134;29;20707;-74
2021/05/17 13:05:27;;;;;;;7.73;2.30;;;16.30;99.90;;;;;;4937970;29;20723;-74
2021/05/17 13:08:02;;;;;;;3.93;2.03;;;16.60;99.90;;;;;;4938289;29;20216;-73
2021/05/17 13:10:29;;;;;;;3.33;1.73;;;16.60;99.90;;;;;;4937755;29;20204;-73
2021/05/17 13:12:55;;;;;;;4.43;2.50;;;16.40;99.90;;;;;;4937920;29;20213;-72
2021/05/17 13:15:22;;;;;;;2.80;1.80;;;16.20;99.90;;;;;;4937904;29;20327;-73
2021/05/17 13:18:00;;;;;;;5.53;2.10;;;16.10;99.90;;;;;;4937776;29;20208;-73
2021/05/17 13:20:28;;;;;;;4.43;2.27;;;16.00;99.90;;;;;;4937778;29;20268;-73
2021/05/17 13:31:45;;;;;;;64.17;11.50;;;16.30;99.90;;;;;;4937650;29;20382;-73
2021/05/17 13:34:11;;;;;;;4.80;2.43;;;16.40;99.90;;;;;;4937382;29;20253;-74
2021/05/17 13:36:38;;;;;;;27.07;5.03;;;16.40;99.90;;;;;;4937601;29;20672;-73
2021/05/17 13:39:05;;;;;;;10.20;2.23;;;16.40;99.90;;;;;;4937622;29;20213;-73
2021/05/17 13:41:32;;;;;;;13.57;2.93;;;16.40;99.90;;;;;;4937299;29;20672;-73
2021/05/17 13:43:58;;;;;;;3.10;1.50;;;16.10;99.90;;;;;;4937262;29;20240;-73
2021/05/17 13:46:26;;;;;;;3.80;1.67;;;16.00;99.90;;;;;;4937493;29;20616;-73
2021/05/17 13:48:52;;;;;;;39.90;7.07;;;15.90;99.90;;;;;;4937203;29;20221;-73
2021/05/17 13:51:21;;;;;;;5.03;1.87;;;16.00;99.90;;;;;;4937568;29;20205;-73
2021/05/17 13:53:47;;;;;;;1.97;1.33;;;16.30;99.90;;;;;;4937326;29;20236;-74
2021/05/17 13:56:14;;;;;;;3.10;1.63;;;16.60;99.90;;;;;;4937537;29;20279;-73
2021/05/17 13:58:41;;;;;;;4.23;1.57;;;16.60;99.90;;;;;;4937626;29;20208;-74
2021/05/17 14:01:07;;;;;;;3.10;1.30;;;17.00;99.90;;;;;;4937142;29;20213;-74
2021/05/17 14:03:34;;;;;;;4.23;1.73;;;17.10;99.90;;;;;;4936700;29;20240;-74
2021/05/17 14:06:00;;;;;;;3.00;1.50;;;17.20;99.90;;;;;;4937264;29;20570;-73
2021/05/17 14:08:26;;;;;;;3.30;1.87;;;17.00;99.90;;;;;;4937200;29;20217;-73
2021/05/17 14:10:52;;;;;;;5.77;1.70;;;16.90;99.90;;;;;;4937194;29;20213;-73
2021/05/17 14:13:19;;;;;;;8.63;1.90;;;16.90;99.90;;;;;;4937171;29;20271;-73
2021/05/17 14:15:47;;;;;;;2.33;1.33;;;16.90;99.90;;;;;;4936721;29;20237;-74
2021/05/17 14:18:13;;;;;;;3.03;1.40;;;16.90;99.90;;;;;;4936739;29;20292;-74
2021/05/17 14:20:41;;;;;;;2.40;1.30;;;16.50;99.90;;;;;;4936983;29;20208;-73
2021/05/17 14:23:07;;;;;;;4.33;1.70;;;16.50;99.90;;;;;;4937001;29;20633;-73
2021/05/17 14:25:33;;;;;;;4.77;1.67;;;16.60;99.90;;;;;;4936839;29;20228;-74
2021/05/17 14:28:00;;;;;;;2.93;1.63;;;16.70;99.90;;;;;;4936859;29;20213;-73
2021/05/17 14:30:27;;;;;;;2.87;1.60;;;16.90;99.90;;;;;;4936579;29;20687;-73
2021/05/17 14:32:53;;;;;;;2.57;1.40;;;17.10;99.90;;;;;;4936879;29;20233;-73
2021/05/17 14:35:20;;;;;;;3.77;1.43;;;17.40;99.90;;;;;;4936644;29;20260;-74
2021/05/17 14:37:46;;;;;;;4.10;1.70;;;17.30;99.90;;;;;;4936343;29;20216;-73
2021/05/17 14:40:14;;;;;;;3.30;1.47;;;17.70;99.90;;;;;;4936383;29;20216;-73
2021/05/17 14:42:40;;;;;;;5.50;2.07;;;17.80;99.90;;;;;;4936468;29;20205;-73
2021/05/17 14:45:10;;;;;;;2.33;1.47;;;17.90;99.90;;;;;;4936025;29;20707;-73
2021/05/17 14:47:37;;;;;;;5.37;1.97;;;18.20;99.90;;;;;;4935921;29;20747;-73
2021/05/17 14:50:04;;;;;;;3.90;1.63;;;18.30;99.90;;;;;;4936177;29;20216;-73
2021/05/17 14:52:30;;;;;;;2.47;1.77;;;18.40;99.90;;;;;;4936543;29;20256;-73
2021/05/17 14:54:57;;;;;;;4.93;1.83;;;18.30;99.90;;;;;;4936375;29;20236;-73
2021/05/17 14:57:23;;;;;;;5.33;1.77;;;18.10;99.90;;;;;;4935939;29;20220;-73
2021/05/17 14:59:52;;;;;;;12.17;2.13;;;18.10;99.90;;;;;;4936376;29;20213;-73
2021/05/17 15:02:20;;;;;;;10.77;2.53;;;18.30;99.90;;;;;;4936545;29;20219;-73
2021/05/17 15:04:47;;;;;;;17.27;2.80;;;18.40;99.90;;;;;;4935907;29;20241;-73
2021/05/17 15:07:13;;;;;;;34.13;5.43;;;18.20;99.90;;;;;;4935924;29;20222;-73
2021/05/17 15:09:40;;;;;;;11.90;2.30;;;17.80;99.90;;;;;;4935927;29;20204;-73
2021/05/17 15:12:06;;;;;;;15.37;3.07;;;17.50;99.90;;;;;;4935977;29;20217;-73
2021/05/17 15:14:32;;;;;;;5.57;1.77;;;17.10;99.90;;;;;;4935581;29;20245;-73
2021/05/17 15:17:00;;;;;;;12.13;2.57;;;16.70;99.90;;;;;;4935990;29;20209;-73
2021/05/17 15:19:26;;;;;;;25.40;3.77;;;16.60;99.90;;;;;;4935735;29;20217;-73
2021/05/17 15:21:53;;;;;;;7.50;2.00;;;16.50;99.90;;;;;;4935873;29;20217;-73
2021/05/17 15:24:20;;;;;;;4.07;1.70;;;16.70;99.90;;;;;;4935596;29;20236;-73
2021/05/17 15:26:46;;;;;;;5.23;1.73;;;16.80;99.90;;;;;;4936100;29;20552;-73
2021/05/17 15:29:14;;;;;;;3.67;1.43;;;16.70;99.90;;;;;;4936222;29;20219;-73
2021/05/17 15:31:40;;;;;;;5.00;1.47;;;16.70;99.90;;;;;;4935763;29;20624;-73
2021/05/17 15:34:07;;;;;;;6.03;1.60;;;16.80;99.90;;;;;;4935864;29;20228;-73
2021/05/17 15:36:33;;;;;;;6.10;1.83;;;16.80;99.90;;;;;;4935606;29;20260;-73
2021/05/17 15:39:00;;;;;;;3.10;1.47;;;16.70;99.90;;;;;;4936465;29;20598;-73
2021/05/17 15:41:27;;;;;;;3.77;1.60;;;16.70;99.90;;;;;;4953992;29;20544;-73
2021/05/17 15:43:53;;;;;;;4.40;2.43;;;16.60;99.90;;;;;;4949677;29;20694;-73
2021/05/17 15:46:19;;;;;;;5.03;1.70;;;16.60;99.90;;;;;;4935261;29;20568;-73
2021/05/17 15:48:45;;;;;;;8.13;2.30;;;16.60;99.90;;;;;;4935469;29;20213;-73
2021/05/17 15:51:12;;;;;;;6.60;1.90;;;16.70;99.90;;;;;;4935474;29;20216;-73
2021/05/17 15:53:40;;;;;;;4.97;2.03;;;16.70;99.90;;;;;;4935765;29;20294;-73
2021/05/17 15:56:07;;;;;;;4.73;1.70;;;16.80;99.90;;;;;;4935076;29;20212;-74
2021/05/17 15:58:38;;;;;;;3.17;1.63;;;16.90;99.90;;;;;;4935001;29;20205;-74
2021/05/17 16:01:04;;;;;;;2.97;1.43;;;16.80;99.90;;;;;;4935357;29;20213;-73
2021/05/17 16:03:30;;;;;;;4.77;1.70;;;16.80;99.90;;;;;;4935454;29;20584;-73
2021/05/17 16:05:57;;;;;;;3.27;1.60;;;16.80;99.90;;;;;;4935916;29;20216;-73
2021/05/17 16:08:23;;;;;;;3.67;1.57;;;16.80;99.90;;;;;;4935155;29;20220;-73
2021/05/17 16:10:51;;;;;;;7.33;1.87;;;16.80;99.90;;;;;;4935517;29;20576;-73
2021/05/17 16:13:23;;;;;;;3.97;1.33;;;16.70;99.90;;;;;;4935366;29;20213;-72
2021/05/17 16:15:54;;;;;;;3.43;1.70;;;16.50;99.90;;;;;;4935152;29;20665;-73
2021/05/17 16:18:29;;;;;;;3.57;1.80;;;16.20;99.90;;;;;;4935209;29;20209;-72
2021/05/17 16:23:40;;;;;;;4.73;1.83;;;16.40;99.90;;;;;;4935093;29;20314;-73
2021/05/17 16:26:06;;;;;;;6.97;1.97;;;16.40;99.90;;;;;;4935188;29;20212;-73
2021/05/17 16:28:33;;;;;;;5.17;2.50;;;16.50;99.90;;;;;;4938256;29;20268;-73
2021/05/17 16:30:59;;;;;;;5.63;1.83;;;16.40;99.90;;;;;;4938881;29;20739;-72
2021/05/17 16:33:26;;;;;;;3.97;2.13;;;16.30;99.90;;;;;;4938304;29;20268;-73
2021/05/17 16:35:52;;;;;;;5.33;1.97;;;16.30;99.90;;;;;;4938690;29;20224;-73
2021/05/17 16:38:18;;;;;;;4.10;2.10;;;16.40;99.90;;;;;;4938487;29;20608;-73
2021/05/17 16:40:44;;;;;;;5.07;2.27;;;16.30;99.90;;;;;;4938750;29;20216;-73
2021/05/17 16:43:11;;;;;;;4.30;1.80;;;16.30;99.90;;;;;;4938721;29;20592;-73
2021/05/17 16:45:38;;;;;;;6.60;2.03;;;16.40;99.90;;;;;;4934255;29;20237;-73
2021/05/17 16:48:05;;;;;;;6.60;1.60;;;16.50;99.90;;;;;;4956569;29;20204;-73
2021/05/17 16:50:31;;;;;;;4.83;2.33;;;16.60;99.90;;;;;;4957141;29;20667;-74
2021/05/17 16:52:57;;;;;;;6.60;1.93;;;16.70;99.90;;;;;;4919082;29;20214;-73
2021/05/17 16:55:23;;;;;;;3.43;1.90;;;16.80;99.90;;;;;;4926233;29;20236;-73
2021/05/17 16:57:50;;;;;;;5.67;2.20;;;16.90;99.90;;;;;;4937605;29;20204;-73
2021/05/17 17:00:18;;;;;;;4.77;1.87;;;16.80;99.90;;;;;;4937196;29;20691;-73
2021/05/17 17:02:45;;;;;;;5.90;2.57;;;16.80;99.90;;;;;;4937740;29;20307;-74
2021/05/17 17:05:13;;;;;;;5.43;2.03;;;16.60;99.90;;;;;;4937715;29;20225;-74
2021/05/17 17:07:42;;;;;;;4.53;1.70;;;16.60;99.90;;;;;;4937513;29;20208;-74
2021/05/17 17:10:10;;;;;;;5.23;1.70;;;16.60;99.90;;;;;;4937581;29;20251;-73
2021/05/17 17:12:36;;;;;;;4.50;1.40;;;16.60;99.90;;;;;;4938041;29;20213;-74
2021/05/17 17:15:03;;;;;;;3.50;1.90;;;16.60;99.90;;;;;;4936709;29;20473;-74
2021/05/17 17:17:30;;;;;;;4.27;1.93;;;16.70;99.90;;;;;;4937623;29;20213;-74
2021/05/17 17:19:57;;;;;;;6.70;1.90;;;16.70;99.90;;;;;;4936980;29;20240;-73
2021/05/17 17:22:23;;;;;;;2.87;1.47;;;16.60;99.90;;;;;;4937462;29;20278;-73
2021/05/17 17:24:50;;;;;;;3.03;1.60;;;16.60;99.90;;;;;;4937064;29;20251;-73
2021/05/17 17:27:16;;;;;;;2.33;1.40;;;16.40;99.90;;;;;;4936778;29;20209;-75
2021/05/17 17:29:42;;;;;;;3.23;1.27;;;16.30;99.90;;;;;;4936956;29;20372;-74
2021/05/17 17:32:09;;;;;;;3.60;1.40;;;16.20;99.90;;;;;;4937434;29;20683;-74
2021/05/17 17:34:40;;;;;;;5.10;1.80;;;15.90;99.90;;;;;;4936706;29;20703;-74
2021/05/17 17:37:09;;;;;;;3.53;1.40;;;15.80;99.90;;;;;;4937254;29;20204;-74
2021/05/17 17:39:36;;;;;;;2.63;1.13;;;15.50;99.90;;;;;;4936237;29;20292;-74
2021/05/17 17:42:02;;;;;;;1.80;1.10;;;14.80;99.90;;;;;;4937014;29;20213;-73
2021/05/17 17:44:28;;;;;;;2.20;1.10;;;14.30;99.90;;;;;;4937206;29;20240;-72
2021/05/17 17:46:54;;;;;;;1.40;0.80;;;13.90;99.90;;;;;;4936875;29;20308;-75
2021/05/17 17:49:21;;;;;;;3.23;0.90;;;13.70;99.90;;;;;;4936368;29;20215;-74
2021/05/17 17:51:48;;;;;;;1.73;1.03;;;13.60;99.90;;;;;;4937173;29;20212;-73
2021/05/17 17:54:17;;;;;;;1.83;1.10;;;13.40;99.90;;;;;;4936953;29;20715;-75
2021/05/17 17:56:44;;;;;;;3.67;0.90;;;13.20;99.90;;;;;;4936272;29;20576;-74
2021/05/17 17:59:11;;;;;;;1.10;0.83;;;13.00;99.90;;;;;;4936530;29;20208;-74
2021/05/17 18:01:39;;;;;;;2.63;1.10;;;13.00;99.90;;;;;;4937107;29;20215;-75
2021/05/17 18:04:05;;;;;;;1.47;0.80;;;13.10;99.90;;;;;;4936787;29;20236;-75
2021/05/17 18:06:32;;;;;;;1.57;1.00;;;13.10;99.90;;;;;;4936314;29;20217;-75
2021/05/17 18:09:03;;;;;;;3.63;1.10;;;13.10;99.90;;;;;;4936047;29;20212;-72
2021/05/17 18:11:30;;;;;;;4.40;1.37;;;13.20;99.90;;;;;;4936788;29;20216;-73
2021/05/17 18:13:58;;;;;;;2.77;1.20;;;13.20;99.90;;;;;;4937292;29;20229;-73
2021/05/17 18:16:25;;;;;;;2.63;1.10;;;13.10;99.90;;;;;;4936335;29;20244;-74
2021/05/17 18:18:51;;;;;;;2.17;1.33;;;13.10;99.90;;;;;;4936143;29;20216;-72
2021/05/17 18:21:20;;;;;;;6.40;3.47;;;12.90;99.90;;;;;;4935943;29;20208;-74
2021/05/17 18:23:47;;;;;;;3.13;1.63;;;12.80;99.90;;;;;;4935924;29;20241;-72
2021/05/17 18:26:14;;;;;;;1.90;1.40;;;12.70;99.90;;;;;;4936082;29;20213;-75
2021/05/17 18:28:41;;;;;;;2.27;1.50;;;12.70;99.90;;;;;;4935972;29;20205;-75
2021/05/17 18:31:11;;;;;;;3.10;1.53;;;12.70;99.90;;;;;;4936058;29;20698;-74
2021/05/17 18:33:40;;;;;;;2.73;1.40;;;12.80;99.90;;;;;;4936147;29;20235;-73
2021/05/17 18:36:12;;;;;;;2.80;2.00;;;12.60;99.90;;;;;;4935303;29;20268;-73
2021/05/17 18:38:38;;;;;;;4.33;2.00;;;12.60;99.90;;;;;;4935917;29;20220;-75
2021/05/17 18:41:05;;;;;;;3.23;1.80;;;12.60;99.90;;;;;;4935616;29;20626;-72
2021/05/17 18:43:46;;;;;;;2.20;1.43;;;12.50;99.90;;;;;;4935917;29;20727;-72
2021/05/17 18:46:15;;;;;;;1.87;1.40;;;12.40;99.90;;;;;;4935488;29;20283;-73
2021/05/17 18:48:45;;;;;;;4.87;1.40;;;12.40;99.90;;;;;;4935542;29;20295;-73
2021/05/17 18:51:16;;;;;;;3.50;1.53;;;12.40;99.90;;;;;;4926768;29;20482;-73
2021/05/17 18:53:43;;;;;;;3.70;1.40;;;12.40;99.90;;;;;;4929710;29;20232;-72
2021/05/17 18:56:11;;;;;;;2.13;1.60;;;12.30;99.90;;;;;;4933582;29;20209;-72
2021/05/17 18:58:37;;;;;;;3.17;1.90;;;12.30;99.90;;;;;;4936157;29;20212;-72
2021/05/17 19:01:04;;;;;;;3.17;1.83;;;12.30;99.90;;;;;;4930438;29;20212;-72
2021/05/17 19:03:32;;;;;;;3.43;1.70;;;12.30;99.90;;;;;;4932038;29;20640;-75
2021/05/17 19:05:58;;;;;;;2.40;1.43;;;12.40;99.90;;;;;;4934088;29;20209;-72
2021/05/17 19:08:25;;;;;;;2.57;1.73;;;12.40;99.90;;;;;;4934119;29;20212;-73
2021/05/17 19:10:51;;;;;;;4.13;1.63;;;12.50;99.90;;;;;;4932137;29;20215;-72
2021/05/17 19:13:18;;;;;;;3.13;1.73;;;12.40;99.90;;;;;;4931197;29;20214;-72
2021/05/17 19:15:44;;;;;;;3.30;1.80;;;12.50;99.90;;;;;;4934341;29;20243;-74
2021/05/17 19:18:12;;;;;;;2.57;1.70;;;12.40;99.90;;;;;;4930734;29;20217;-73
2021/05/17 19:20:39;;;;;;;2.20;1.70;;;12.30;99.90;;;;;;4933257;29;20576;-74
2021/05/17 19:23:06;;;;;;;2.67;1.70;;;12.30;99.90;;;;;;4935602;29;20216;-74
2021/05/17 19:25:32;;;;;;;2.23;1.60;;;12.30;99.90;;;;;;4934386;29;20240;-74
2021/05/17 19:28:00;;;;;;;4.47;1.97;;;12.20;99.90;;;;;;4930978;29;20316;-74
2021/05/17 19:30:27;;;;;;;2.67;1.90;;;12.10;99.90;;;;;;4933258;29;20221;-73
2021/05/17 19:32:53;;;;;;;3.17;2.23;;;12.10;99.90;;;;;;4929716;29;20264;-73
2021/05/17 19:35:19;;;;;;;5.40;3.63;;;12.10;99.90;;;;;;4935439;29;20236;-73
2021/05/17 19:37:46;;;;;;;4.20;2.40;;;12.00;99.90;;;;;;4930531;29;20197;-74
2021/05/17 19:40:16;;;;;;;5.37;2.10;;;12.00;99.90;;;;;;4931460;29;20267;-73